Данни от 31.08.2026 г. 08:07:56

Температура вътрешна: 25.5 °C
Температура външна: 20.1 °C
Атмосферно налягане: 999.5 hPa
Атмосферно налягане на морско равнище: 1017.3 hPa
Влажност: 50.0 %



История от последните 24 часа

Дата и часTin [°C]P [hPa]Psl [hPa]H [%]Tout [°C]
   31.08.2026 г. 08:00:55      25.5      999.5      1017.3      50.9      19.8   
   31.08.2026 г. 07:30:55      25.4      999.4      1017.3      50.1      19.0   
   31.08.2026 г. 07:00:55      25.3      999.3      1017.2      50.2      18.6   
   31.08.2026 г. 06:30:55      25.4      999.3      1017.1      50.3      18.6   
   31.08.2026 г. 06:00:55      25.5      999.2      1017.1      50.5      18.8   
   31.08.2026 г. 05:30:56      25.5      999.2      1017.0      50.8      18.8   
   31.08.2026 г. 05:00:55      25.7      999.3      1017.2      50.1      19.8   
   31.08.2026 г. 04:30:55      25.6      999.3      1017.2      50.6      19.5   
   31.08.2026 г. 04:00:55      25.7      999.4      1017.3      50.3      20.0   
   31.08.2026 г. 03:30:56      25.7      999.4      1017.2      50.2      20.0   
   31.08.2026 г. 03:00:55      25.9      999.3      1017.1      49.9      19.9   
   31.08.2026 г. 02:30:56      25.9      999.4      1017.3      49.9      20.8   
   31.08.2026 г. 02:00:55      26.0      999.3      1017.2      50.1      21.0   
   31.08.2026 г. 01:30:56      26.2      999.3      1017.1      49.6      22.1   
   31.08.2026 г. 01:00:55      26.2      999.4      1017.2      48.8      22.9   
   31.08.2026 г. 00:30:56      26.4      999.4      1017.2      48.6      23.0   
   31.08.2026 г. 00:00:55      26.4      999.3      1017.2      48.7      23.4   
   30.08.2026 г. 23:30:56      26.5      999.2      1017.0      47.5      23.0   
   30.08.2026 г. 23:00:55      26.5      999.1      1016.9      48.3      22.6   
   30.08.2026 г. 22:30:56      26.6      999.0      1016.8      48.0      22.8   
   30.08.2026 г. 22:00:55      26.7      998.9      1016.7      47.8      23.0   
   30.08.2026 г. 21:30:56      26.8      998.7      1016.6      49.8      23.0   
   30.08.2026 г. 21:00:55      26.9      998.5      1016.3      50.5      23.8   
   30.08.2026 г. 20:30:56      27.0      998.2      1016.0      52.3      24.5   
   30.08.2026 г. 20:00:55      27.1      997.9      1015.8      54.5      26.3   
   30.08.2026 г. 19:30:56      27.1      997.8      1015.6      53.5      29.8   
   30.08.2026 г. 19:00:55      27.0      997.9      1015.7      53.3      30.4   
   30.08.2026 г. 18:30:56      27.0      997.9      1015.7      53.5      30.9   
   30.08.2026 г. 18:00:55      26.9      998.0      1015.9      51.3      31.9   
   30.08.2026 г. 17:30:56      26.9      998.0      1015.8      52.0      32.8   
   30.08.2026 г. 17:00:55      26.9      998.1      1015.9      52.4      34.6   
   30.08.2026 г. 16:30:56      26.9      998.4      1016.2      51.5      33.5   
   30.08.2026 г. 16:00:55      27.0      998.5      1016.4      52.3      32.3   
   30.08.2026 г. 15:30:56      26.8      998.8      1016.6      51.5      31.1   
   30.08.2026 г. 15:00:55      26.8      999.0      1016.9      51.8      29.9   
   30.08.2026 г. 14:30:56      26.7      999.3      1017.1      51.4      28.7   
   30.08.2026 г. 14:00:55      26.6      999.4      1017.3      51.5      27.5   
   30.08.2026 г. 13:30:56      26.6      999.8      1017.6      51.9      26.3   
   30.08.2026 г. 13:00:56      26.6      1000.0      1017.9      51.3      25.8   
   30.08.2026 г. 12:30:55      26.5      1000.2      1018.1      50.5      25.1   
   30.08.2026 г. 12:00:56      26.4      1000.5      1018.4      48.8      24.5   
   30.08.2026 г. 11:30:55      26.3      1000.9      1018.8      49.1      23.6   
   30.08.2026 г. 11:00:56      26.2      1000.9      1018.8      49.1      22.8   
   30.08.2026 г. 10:30:55      26.1      1000.5      1018.4      49.7      22.0   
   30.08.2026 г. 10:00:56      25.9      1000.3      1018.2      49.4      21.1   
   30.08.2026 г. 09:30:55      25.8      1000.1      1017.9      48.9      20.4   
   30.08.2026 г. 09:00:56      25.3      999.9      1017.7      49.5      19.5   
   30.08.2026 г. 08:30:55      25.2      999.7      1017.5      49.3      20.3   

BaroSL graphic

TEMPE graphic